Decoded Metar for CZMT (MASSET in BC, CANADA) (IATA:N/A) | Meteo·Mobile Aviation Weather
aviador You're here:

CZMT Decoded Metar

MASSET in BC, CANADA
Report Time2019-02-22 20:00:00
UTC Time2019-02-22 20:12:34
Flight Rules vfr VFR
Wind310° at 08 kt
W.Decomp.*RWY 31: 7.4 kt HW 3 kt LCW
W.Rank310° ranks 9
Current wind is below 310° avg. (8.7)
Visibility9999 m
Phenomena:Light Shower Rain
Clouds:Few 004 Hf
Few 008 Hf
Scattered 012 Hf
Broken 100 Hf
Broken 180 Hf
Expected CloudBase > 400 ft AGL from Temp-Dew spread
Ceiling10,000 ft
Temp04°C (ISA -11)
Dew Point03°C (93% RH)
AAT-0.4°C
QNH1003 hPa
Density Alt-856 ft
Elevation26 ft
Report Wrong Elevation
Raw Report
METAR CZMT 222000Z 31008KT 15SM -SHRA FEW004 FEW008 SCT012 BKN100 BKN180 04/03 A2963 RMK CF1CU1CU2AC1CI1 SLP034=

Extra information for CZMT:More info

Metar Taf Metar & Taf Last 4 Metars F.Rules Stats Wind Profile Meteogram Temp Stats Airport Information Weather charts Add Link Nearby VenuesMetar ALERT Operation Metar Decoded Social comments